sensor_id;sensor_type;location;lat;lon;timestamp;pressure;altitude;pressure_sealevel;temperature;humidity
60920;BME280;59039;52.108;19.942;2023-12-20T00:01:04;99833.59;;;6.29;90.79
60920;BME280;59039;52.108;19.942;2023-12-20T00:03:29;99830.77;;;6.28;91.13
60920;BME280;59039;52.108;19.942;2023-12-20T00:05:54;99830.02;;;6.29;91.02
60920;BME280;59039;52.108;19.942;2023-12-20T00:08:20;99829.84;;;6.28;91.06
60920;BME280;59039;52.108;19.942;2023-12-20T00:10:45;99824.98;;;6.28;91.12
60920;BME280;59039;52.108;19.942;2023-12-20T00:13:10;99823.93;;;6.28;91.05
60920;BME280;59039;52.108;19.942;2023-12-20T00:15:36;99823.02;;;6.26;91.18
60920;BME280;59039;52.108;19.942;2023-12-20T00:18:01;99826.02;;;6.25;91.03
60920;BME280;59039;52.108;19.942;2023-12-20T00:20:27;99825.27;;;6.25;91.18
60920;BME280;59039;52.108;19.942;2023-12-20T00:22:55;99823.14;;;6.25;91.43
60920;BME280;59039;52.108;19.942;2023-12-20T00:25:21;99820.05;;;6.25;91.44
60920;BME280;59039;52.108;19.942;2023-12-20T00:27:46;99819.59;;;6.26;91.37
60920;BME280;59039;52.108;19.942;2023-12-20T00:30:11;99814.21;;;6.26;91.23
60920;BME280;59039;52.108;19.942;2023-12-20T00:32:38;99818.58;;;6.26;91.48
60920;BME280;59039;52.108;19.942;2023-12-20T00:35:03;99808.27;;;6.26;91.48
60920;BME280;59039;52.108;19.942;2023-12-20T00:37:29;99813.11;;;6.26;91.61
60920;BME280;59039;52.108;19.942;2023-12-20T00:39:54;99809.79;;;6.27;91.72
60920;BME280;59039;52.108;19.942;2023-12-20T00:42:19;99810.17;;;6.27;91.72
60920;BME280;59039;52.108;19.942;2023-12-20T00:44:44;99810.46;;;6.28;91.67
60920;BME280;59039;52.108;19.942;2023-12-20T00:47:10;99801.83;;;6.28;91.76
60920;BME280;59039;52.108;19.942;2023-12-20T00:49:35;99806.86;;;6.28;91.77
60920;BME280;59039;52.108;19.942;2023-12-20T00:52:00;99807.27;;;6.27;91.77
60920;BME280;59039;52.108;19.942;2023-12-20T00:54:25;99805.52;;;6.29;91.84
60920;BME280;59039;52.108;19.942;2023-12-20T00:56:51;99800.67;;;6.29;91.82
60920;BME280;59039;52.108;19.942;2023-12-20T00:59:16;99795.50;;;6.28;91.83
60920;BME280;59039;52.108;19.942;2023-12-20T01:01:42;99797.70;;;6.28;92.01
60920;BME280;59039;52.108;19.942;2023-12-20T01:04:07;99793.96;;;6.27;92.07
60920;BME280;59039;52.108;19.942;2023-12-20T01:06:32;99788.77;;;6.27;92.22
60920;BME280;59039;52.108;19.942;2023-12-20T01:08:57;99786.66;;;6.26;92.97
60920;BME280;59039;52.108;19.942;2023-12-20T01:11:23;99783.65;;;6.26;92.52
60920;BME280;59039;52.108;19.942;2023-12-20T01:13:48;99775.58;;;6.26;92.34
60920;BME280;59039;52.108;19.942;2023-12-20T01:16:13;99783.26;;;6.26;92.21
60920;BME280;59039;52.108;19.942;2023-12-20T01:18:38;99784.70;;;6.26;92.23
60920;BME280;59039;52.108;19.942;2023-12-20T01:21:04;99783.94;;;6.27;92.23
60920;BME280;59039;52.108;19.942;2023-12-20T01:23:29;99785.55;;;6.27;92.19
60920;BME280;59039;52.108;19.942;2023-12-20T01:25:54;99783.63;;;6.26;91.98
60920;BME280;59039;52.108;19.942;2023-12-20T01:28:20;99782.71;;;6.26;92.45
60920;BME280;59039;52.108;19.942;2023-12-20T01:30:45;99784.02;;;6.26;92.21
60920;BME280;59039;52.108;19.942;2023-12-20T01:33:10;99776.71;;;6.25;92.27
60920;BME280;59039;52.108;19.942;2023-12-20T01:35:35;99776.11;;;6.24;92.39
60920;BME280;59039;52.108;19.942;2023-12-20T01:38:01;99771.73;;;6.23;92.63
60920;BME280;59039;52.108;19.942;2023-12-20T01:40:26;99768.34;;;6.22;92.32
60920;BME280;59039;52.108;19.942;2023-12-20T01:43:09;99765.80;;;6.23;92.28
60920;BME280;59039;52.108;19.942;2023-12-20T01:45:35;99766.70;;;6.22;92.73
60920;BME280;59039;52.108;19.942;2023-12-20T01:48:01;99762.63;;;6.22;92.55
60920;BME280;59039;52.108;19.942;2023-12-20T01:50:28;99750.38;;;6.22;92.69
60920;BME280;59039;52.108;19.942;2023-12-20T01:52:55;99758.71;;;6.22;92.51
60920;BME280;59039;52.108;19.942;2023-12-20T01:55:22;99749.05;;;6.21;92.25
60920;BME280;59039;52.108;19.942;2023-12-20T01:57:47;99745.59;;;6.21;92.37
60920;BME280;59039;52.108;19.942;2023-12-20T02:00:13;99741.91;;;6.20;92.77
60920;BME280;59039;52.108;19.942;2023-12-20T02:02:40;99750.59;;;6.20;92.41
60920;BME280;59039;52.108;19.942;2023-12-20T02:05:06;99744.67;;;6.20;92.67
60920;BME280;59039;52.108;19.942;2023-12-20T02:07:31;99742.62;;;6.20;92.48
60920;BME280;59039;52.108;19.942;2023-12-20T02:09:57;99741.48;;;6.21;92.44
60920;BME280;59039;52.108;19.942;2023-12-20T02:12:22;99738.75;;;6.21;92.26
60920;BME280;59039;52.108;19.942;2023-12-20T02:14:48;99735.16;;;6.21;92.44
60920;BME280;59039;52.108;19.942;2023-12-20T02:17:14;99730.52;;;6.21;92.34
60920;BME280;59039;52.108;19.942;2023-12-20T02:19:39;99730.34;;;6.21;92.55
60920;BME280;59039;52.108;19.942;2023-12-20T02:22:09;99730.00;;;6.21;92.77
60920;BME280;59039;52.108;19.942;2023-12-20T02:24:34;99728.42;;;6.20;93.08
60920;BME280;59039;52.108;19.942;2023-12-20T02:26:59;99730.63;;;6.20;93.11
60920;BME280;59039;52.108;19.942;2023-12-20T02:29:25;99727.79;;;6.21;92.97
60920;BME280;59039;52.108;19.942;2023-12-20T02:31:50;99730.54;;;6.23;92.85
60920;BME280;59039;52.108;19.942;2023-12-20T02:34:16;99727.84;;;6.25;92.74
60920;BME280;59039;52.108;19.942;2023-12-20T02:36:41;99725.27;;;6.27;92.76
60920;BME280;59039;52.108;19.942;2023-12-20T02:39:06;99725.85;;;6.29;92.95
60920;BME280;59039;52.108;19.942;2023-12-20T02:41:31;99721.08;;;6.30;92.91
60920;BME280;59039;52.108;19.942;2023-12-20T02:43:57;99730.52;;;6.31;92.81
60920;BME280;59039;52.108;19.942;2023-12-20T02:46:22;99726.55;;;6.31;92.67
60920;BME280;59039;52.108;19.942;2023-12-20T02:48:48;99723.50;;;6.31;92.49
60920;BME280;59039;52.108;19.942;2023-12-20T02:51:13;99721.25;;;6.30;92.67
60920;BME280;59039;52.108;19.942;2023-12-20T02:53:38;99719.66;;;6.30;92.62
60920;BME280;59039;52.108;19.942;2023-12-20T02:56:04;99723.69;;;6.29;92.53
60920;BME280;59039;52.108;19.942;2023-12-20T02:58:29;99728.69;;;6.27;92.46
60920;BME280;59039;52.108;19.942;2023-12-20T03:00:54;99724.12;;;6.26;92.43
60920;BME280;59039;52.108;19.942;2023-12-20T03:03:19;99722.20;;;6.25;92.31
60920;BME280;59039;52.108;19.942;2023-12-20T03:05:45;99719.20;;;6.25;92.40
60920;BME280;59039;52.108;19.942;2023-12-20T03:08:10;99708.83;;;6.24;92.47
60920;BME280;59039;52.108;19.942;2023-12-20T03:10:35;99709.20;;;6.24;92.43
60920;BME280;59039;52.108;19.942;2023-12-20T03:13:00;99710.27;;;6.24;92.43
60920;BME280;59039;52.108;19.942;2023-12-20T03:15:26;99705.17;;;6.25;92.41
60920;BME280;59039;52.108;19.942;2023-12-20T03:17:51;99700.96;;;6.25;92.55
60920;BME280;59039;52.108;19.942;2023-12-20T03:20:16;99701.48;;;6.26;92.53
60920;BME280;59039;52.108;19.942;2023-12-20T03:22:41;99701.67;;;6.25;92.48
60920;BME280;59039;52.108;19.942;2023-12-20T03:25:07;99702.89;;;6.26;92.49
60920;BME280;59039;52.108;19.942;2023-12-20T03:27:32;99701.27;;;6.26;92.45
60920;BME280;59039;52.108;19.942;2023-12-20T03:29:57;99702.79;;;6.25;92.49
60920;BME280;59039;52.108;19.942;2023-12-20T03:32:23;99700.42;;;6.23;92.52
60920;BME280;59039;52.108;19.942;2023-12-20T03:34:48;99696.29;;;6.22;92.61
60920;BME280;59039;52.108;19.942;2023-12-20T03:37:13;99686.89;;;6.20;92.76
60920;BME280;59039;52.108;19.942;2023-12-20T03:39:38;99686.42;;;6.19;92.81
60920;BME280;59039;52.108;19.942;2023-12-20T03:42:04;99686.35;;;6.18;92.74
60920;BME280;59039;52.108;19.942;2023-12-20T03:44:29;99692.73;;;6.17;92.72
60920;BME280;59039;52.108;19.942;2023-12-20T03:46:54;99690.36;;;6.16;92.82
60920;BME280;59039;52.108;19.942;2023-12-20T03:49:19;99688.30;;;6.15;92.82
60920;BME280;59039;52.108;19.942;2023-12-20T03:51:44;99689.45;;;6.12;92.62
60920;BME280;59039;52.108;19.942;2023-12-20T03:54:10;99694.16;;;6.10;92.81
60920;BME280;59039;52.108;19.942;2023-12-20T03:56:35;99696.05;;;6.09;92.92
60920;BME280;59039;52.108;19.942;2023-12-20T03:59:00;99698.52;;;6.07;92.95
60920;BME280;59039;52.108;19.942;2023-12-20T04:01:25;99697.95;;;6.06;92.80
60920;BME280;59039;52.108;19.942;2023-12-20T04:03:50;99700.11;;;6.05;92.71
60920;BME280;59039;52.108;19.942;2023-12-20T04:06:17;99698.07;;;6.04;92.73
60920;BME280;59039;52.108;19.942;2023-12-20T04:08:42;99701.50;;;6.04;92.84
60920;BME280;59039;52.108;19.942;2023-12-20T04:11:08;99699.15;;;6.04;92.83
60920;BME280;59039;52.108;19.942;2023-12-20T04:13:33;99698.41;;;6.05;92.97
60920;BME280;59039;52.108;19.942;2023-12-20T04:15:58;99698.63;;;6.04;92.91
60920;BME280;59039;52.108;19.942;2023-12-20T04:18:23;99699.77;;;6.04;92.89
60920;BME280;59039;52.108;19.942;2023-12-20T04:20:48;99697.81;;;6.03;92.91
60920;BME280;59039;52.108;19.942;2023-12-20T04:23:14;99693.86;;;6.03;92.99
60920;BME280;59039;52.108;19.942;2023-12-20T04:25:39;99697.73;;;6.02;93.20
60920;BME280;59039;52.108;19.942;2023-12-20T04:28:04;99699.80;;;6.01;93.02
60920;BME280;59039;52.108;19.942;2023-12-20T04:30:29;99691.83;;;6.00;93.09
60920;BME280;59039;52.108;19.942;2023-12-20T04:32:55;99688.08;;;6.00;93.10
60920;BME280;59039;52.108;19.942;2023-12-20T04:35:20;99690.49;;;6.01;93.11
60920;BME280;59039;52.108;19.942;2023-12-20T04:37:45;99684.16;;;6.01;93.11
60920;BME280;59039;52.108;19.942;2023-12-20T04:40:10;99687.80;;;6.01;93.19
60920;BME280;59039;52.108;19.942;2023-12-20T04:42:36;99680.17;;;6.00;93.23
60920;BME280;59039;52.108;19.942;2023-12-20T04:45:01;99682.09;;;6.00;93.18
60920;BME280;59039;52.108;19.942;2023-12-20T04:47:26;99675.88;;;6.00;93.31
60920;BME280;59039;52.108;19.942;2023-12-20T04:49:51;99676.23;;;5.99;93.33
60920;BME280;59039;52.108;19.942;2023-12-20T04:52:16;99673.39;;;5.99;93.17
60920;BME280;59039;52.108;19.942;2023-12-20T04:54:42;99671.27;;;5.99;93.33
60920;BME280;59039;52.108;19.942;2023-12-20T04:57:07;99669.50;;;5.98;93.35
60920;BME280;59039;52.108;19.942;2023-12-20T04:59:32;99670.30;;;5.97;93.36
60920;BME280;59039;52.108;19.942;2023-12-20T05:01:57;99670.64;;;5.96;93.41
60920;BME280;59039;52.108;19.942;2023-12-20T05:04:22;99672.13;;;5.96;93.54
60920;BME280;59039;52.108;19.942;2023-12-20T05:06:48;99674.09;;;5.96;93.72
60920;BME280;59039;52.108;19.942;2023-12-20T05:09:13;99671.45;;;5.95;93.47
60920;BME280;59039;52.108;19.942;2023-12-20T05:11:38;99680.23;;;5.95;93.64
60920;BME280;59039;52.108;19.942;2023-12-20T05:14:03;99672.49;;;5.95;93.72
60920;BME280;59039;52.108;19.942;2023-12-20T05:16:29;99671.64;;;5.95;93.69
60920;BME280;59039;52.108;19.942;2023-12-20T05:18:54;99668.42;;;5.95;93.65
60920;BME280;59039;52.108;19.942;2023-12-20T05:21:19;99669.94;;;5.94;93.85
60920;BME280;59039;52.108;19.942;2023-12-20T05:23:45;99670.35;;;5.93;93.79
60920;BME280;59039;52.108;19.942;2023-12-20T05:26:10;99668.73;;;5.93;93.69
60920;BME280;59039;52.108;19.942;2023-12-20T05:28:35;99667.89;;;5.92;93.58
60920;BME280;59039;52.108;19.942;2023-12-20T05:31:01;99662.56;;;5.92;93.86
60920;BME280;59039;52.108;19.942;2023-12-20T05:33:26;99666.19;;;5.91;93.94
60920;BME280;59039;52.108;19.942;2023-12-20T05:35:51;99663.81;;;5.92;93.97
60920;BME280;59039;52.108;19.942;2023-12-20T05:38:16;99667.78;;;5.92;93.94
60920;BME280;59039;52.108;19.942;2023-12-20T05:40:41;99669.66;;;5.91;93.82
60920;BME280;59039;52.108;19.942;2023-12-20T05:43:07;99667.38;;;5.90;93.78
60920;BME280;59039;52.108;19.942;2023-12-20T05:45:32;99670.76;;;5.91;93.74
60920;BME280;59039;52.108;19.942;2023-12-20T05:47:57;99671.54;;;5.90;94.00
60920;BME280;59039;52.108;19.942;2023-12-20T05:50:22;99666.68;;;5.90;93.89
60920;BME280;59039;52.108;19.942;2023-12-20T05:52:47;99659.89;;;5.89;93.92
60920;BME280;59039;52.108;19.942;2023-12-20T05:55:13;99659.70;;;5.90;93.87
60920;BME280;59039;52.108;19.942;2023-12-20T05:57:38;99663.67;;;5.90;93.74
60920;BME280;59039;52.108;19.942;2023-12-20T06:00:03;99660.17;;;5.89;93.73
60920;BME280;59039;52.108;19.942;2023-12-20T06:02:29;99660.20;;;5.88;93.68
60920;BME280;59039;52.108;19.942;2023-12-20T06:04:54;99660.29;;;5.87;93.72
60920;BME280;59039;52.108;19.942;2023-12-20T06:07:19;99663.10;;;5.86;93.59
60920;BME280;59039;52.108;19.942;2023-12-20T06:09:44;99662.48;;;5.85;93.55
60920;BME280;59039;52.108;19.942;2023-12-20T06:12:10;99664.16;;;5.84;93.61
60920;BME280;59039;52.108;19.942;2023-12-20T06:14:35;99666.17;;;5.84;93.78
60920;BME280;59039;52.108;19.942;2023-12-20T06:17:00;99664.49;;;5.82;93.83
60920;BME280;59039;52.108;19.942;2023-12-20T06:19:25;99662.98;;;5.81;93.81
60920;BME280;59039;52.108;19.942;2023-12-20T06:21:50;99655.92;;;5.82;93.92
60920;BME280;59039;52.108;19.942;2023-12-20T06:24:16;99658.05;;;5.82;93.95
60920;BME280;59039;52.108;19.942;2023-12-20T06:26:41;99662.00;;;5.82;93.88
60920;BME280;59039;52.108;19.942;2023-12-20T06:29:06;99659.77;;;5.81;93.92
60920;BME280;59039;52.108;19.942;2023-12-20T06:31:31;99663.71;;;5.81;93.94
60920;BME280;59039;52.108;19.942;2023-12-20T06:33:56;99663.33;;;5.81;94.14
60920;BME280;59039;52.108;19.942;2023-12-20T06:36:22;99656.50;;;5.81;94.11
60920;BME280;59039;52.108;19.942;2023-12-20T06:38:47;99655.66;;;5.81;94.18
60920;BME280;59039;52.108;19.942;2023-12-20T06:41:13;99657.44;;;5.81;94.17
60920;BME280;59039;52.108;19.942;2023-12-20T06:43:38;99661.17;;;5.81;94.29
60920;BME280;59039;52.108;19.942;2023-12-20T06:46:03;99659.55;;;5.82;94.14
60920;BME280;59039;52.108;19.942;2023-12-20T06:48:29;99657.55;;;5.82;94.07
60920;BME280;59039;52.108;19.942;2023-12-20T06:50:54;99657.89;;;5.82;94.08
60920;BME280;59039;52.108;19.942;2023-12-20T06:53:19;99661.35;;;5.81;94.09
60920;BME280;59039;52.108;19.942;2023-12-20T06:55:44;99658.67;;;5.81;94.07
60920;BME280;59039;52.108;19.942;2023-12-20T06:58:09;99662.30;;;5.81;94.07
60920;BME280;59039;52.108;19.942;2023-12-20T07:00:35;99664.42;;;5.81;94.22
60920;BME280;59039;52.108;19.942;2023-12-20T07:03:00;99663.98;;;5.82;94.24
60920;BME280;59039;52.108;19.942;2023-12-20T07:05:25;99666.14;;;5.82;94.20
60920;BME280;59039;52.108;19.942;2023-12-20T07:07:51;99671.81;;;5.83;94.19
60920;BME280;59039;52.108;19.942;2023-12-20T07:10:16;99674.55;;;5.82;94.16
60920;BME280;59039;52.108;19.942;2023-12-20T07:12:41;99676.23;;;5.82;94.18
60920;BME280;59039;52.108;19.942;2023-12-20T07:15:07;99673.05;;;5.81;94.35
60920;BME280;59039;52.108;19.942;2023-12-20T07:17:33;99672.56;;;5.81;94.30
60920;BME280;59039;52.108;19.942;2023-12-20T07:19:58;99674.68;;;5.79;94.08
60920;BME280;59039;52.108;19.942;2023-12-20T07:22:24;99677.86;;;5.78;94.18
60920;BME280;59039;52.108;19.942;2023-12-20T07:24:49;99673.89;;;5.76;94.36
60920;BME280;59039;52.108;19.942;2023-12-20T07:27:14;99672.62;;;5.74;94.67
60920;BME280;59039;52.108;19.942;2023-12-20T07:29:39;99677.66;;;5.72;94.80
60920;BME280;59039;52.108;19.942;2023-12-20T07:32:05;99674.13;;;5.72;94.68
60920;BME280;59039;52.108;19.942;2023-12-20T07:34:30;99670.04;;;5.71;94.60
60920;BME280;59039;52.108;19.942;2023-12-20T07:36:56;99670.36;;;5.72;94.43
60920;BME280;59039;52.108;19.942;2023-12-20T07:39:21;99671.31;;;5.71;94.30
60920;BME280;59039;52.108;19.942;2023-12-20T07:41:46;99671.69;;;5.71;94.20
60920;BME280;59039;52.108;19.942;2023-12-20T07:44:11;99677.70;;;5.70;94.10
60920;BME280;59039;52.108;19.942;2023-12-20T07:46:36;99675.41;;;5.70;94.49
60920;BME280;59039;52.108;19.942;2023-12-20T07:49:02;99676.42;;;5.70;94.34
60920;BME280;59039;52.108;19.942;2023-12-20T07:51:27;99676.98;;;5.70;94.32
60920;BME280;59039;52.108;19.942;2023-12-20T07:53:52;99678.98;;;5.70;94.47
60920;BME280;59039;52.108;19.942;2023-12-20T07:56:18;99676.54;;;5.71;94.52
60920;BME280;59039;52.108;19.942;2023-12-20T07:58:44;99677.66;;;5.72;94.48
60920;BME280;59039;52.108;19.942;2023-12-20T08:01:13;99674.78;;;5.73;94.43
60920;BME280;59039;52.108;19.942;2023-12-20T08:03:38;99676.95;;;5.72;94.35
60920;BME280;59039;52.108;19.942;2023-12-20T08:06:04;99671.98;;;5.71;94.39
60920;BME280;59039;52.108;19.942;2023-12-20T08:08:29;99669.96;;;5.72;94.42
60920;BME280;59039;52.108;19.942;2023-12-20T08:10:55;99674.21;;;5.73;94.58
60920;BME280;59039;52.108;19.942;2023-12-20T08:13:20;99667.39;;;5.72;94.78
60920;BME280;59039;52.108;19.942;2023-12-20T08:15:45;99663.11;;;5.72;94.70
60920;BME280;59039;52.108;19.942;2023-12-20T08:18:10;99665.60;;;5.72;94.61
60920;BME280;59039;52.108;19.942;2023-12-20T08:20:35;99667.25;;;5.72;95.03
60920;BME280;59039;52.108;19.942;2023-12-20T08:23:01;99670.45;;;5.72;94.73
60920;BME280;59039;52.108;19.942;2023-12-20T08:25:26;99663.95;;;5.73;94.76
60920;BME280;59039;52.108;19.942;2023-12-20T08:27:51;99663.06;;;5.75;94.58
60920;BME280;59039;52.108;19.942;2023-12-20T08:30:16;99662.99;;;5.75;94.79
60920;BME280;59039;52.108;19.942;2023-12-20T08:32:42;99659.73;;;5.76;94.84
60920;BME280;59039;52.108;19.942;2023-12-20T08:35:07;99662.23;;;5.76;94.91
60920;BME280;59039;52.108;19.942;2023-12-20T08:37:32;99660.44;;;5.76;94.90
60920;BME280;59039;52.108;19.942;2023-12-20T08:39:57;99659.82;;;5.75;94.94
60920;BME280;59039;52.108;19.942;2023-12-20T08:42:23;99659.16;;;5.74;94.83
60920;BME280;59039;52.108;19.942;2023-12-20T08:44:48;99658.31;;;5.76;94.86
60920;BME280;59039;52.108;19.942;2023-12-20T08:47:13;99661.29;;;5.76;94.85
60920;BME280;59039;52.108;19.942;2023-12-20T08:49:39;99661.48;;;5.76;94.94
60920;BME280;59039;52.108;19.942;2023-12-20T08:52:04;99658.48;;;5.76;94.93
60920;BME280;59039;52.108;19.942;2023-12-20T08:54:30;99659.70;;;5.76;94.79
60920;BME280;59039;52.108;19.942;2023-12-20T08:56:55;99665.23;;;5.77;95.07
60920;BME280;59039;52.108;19.942;2023-12-20T08:59:20;99664.42;;;5.77;95.09
60920;BME280;59039;52.108;19.942;2023-12-20T09:01:45;99667.10;;;5.79;95.07
60920;BME280;59039;52.108;19.942;2023-12-20T09:04:10;99661.36;;;5.81;95.18
60920;BME280;59039;52.108;19.942;2023-12-20T09:06:36;99652.17;;;5.83;95.09
60920;BME280;59039;52.108;19.942;2023-12-20T09:09:01;99651.30;;;5.85;95.24
60920;BME280;59039;52.108;19.942;2023-12-20T09:11:26;99649.46;;;5.88;95.19
60920;BME280;59039;52.108;19.942;2023-12-20T09:13:51;99652.70;;;5.89;95.01
60920;BME280;59039;52.108;19.942;2023-12-20T09:16:16;99646.68;;;5.90;95.10
60920;BME280;59039;52.108;19.942;2023-12-20T09:18:42;99647.37;;;5.91;95.06
60920;BME280;59039;52.108;19.942;2023-12-20T09:21:07;99646.40;;;5.92;95.04
60920;BME280;59039;52.108;19.942;2023-12-20T09:23:32;99643.85;;;5.92;95.03
60920;BME280;59039;52.108;19.942;2023-12-20T09:25:57;99643.15;;;5.94;95.16
60920;BME280;59039;52.108;19.942;2023-12-20T09:28:23;99640.15;;;5.95;95.12
60920;BME280;59039;52.108;19.942;2023-12-20T09:30:48;99637.29;;;5.97;95.26
60920;BME280;59039;52.108;19.942;2023-12-20T09:33:14;99637.10;;;5.99;94.97
60920;BME280;59039;52.108;19.942;2023-12-20T09:35:39;99637.22;;;5.99;95.16
60920;BME280;59039;52.108;19.942;2023-12-20T09:38:05;99633.47;;;5.99;95.00
60920;BME280;59039;52.108;19.942;2023-12-20T09:40:32;99632.48;;;5.98;95.07
60920;BME280;59039;52.108;19.942;2023-12-20T09:43:02;99638.86;;;5.97;95.06
60920;BME280;59039;52.108;19.942;2023-12-20T09:45:30;99631.77;;;5.96;95.00
60920;BME280;59039;52.108;19.942;2023-12-20T09:47:58;99635.64;;;5.95;94.81
60920;BME280;59039;52.108;19.942;2023-12-20T09:50:23;99631.23;;;5.94;94.79
60920;BME280;59039;52.108;19.942;2023-12-20T09:52:51;99626.66;;;5.93;95.12
60920;BME280;59039;52.108;19.942;2023-12-20T09:55:20;99622.11;;;5.94;95.26
60920;BME280;59039;52.108;19.942;2023-12-20T09:57:49;99619.14;;;5.93;95.15
60920;BME280;59039;52.108;19.942;2023-12-20T10:00:14;99618.98;;;5.94;95.15
60920;BME280;59039;52.108;19.942;2023-12-20T10:02:50;99615.02;;;5.95;95.01
60920;BME280;59039;52.108;19.942;2023-12-20T10:05:26;99610.25;;;5.94;95.03
60920;BME280;59039;52.108;19.942;2023-12-20T10:07:51;99614.70;;;5.94;95.21
60920;BME280;59039;52.108;19.942;2023-12-20T10:10:16;99613.70;;;5.95;95.05
60920;BME280;59039;52.108;19.942;2023-12-20T10:13:01;99615.15;;;5.95;95.09
60920;BME280;59039;52.108;19.942;2023-12-20T10:15:26;99611.78;;;5.96;95.13
60920;BME280;59039;52.108;19.942;2023-12-20T10:17:51;99601.69;;;5.97;94.90
60920;BME280;59039;52.108;19.942;2023-12-20T10:20:17;99597.71;;;5.97;94.95
60920;BME280;59039;52.108;19.942;2023-12-20T10:22:42;99598.98;;;5.97;94.95
60920;BME280;59039;52.108;19.942;2023-12-20T10:25:07;99600.09;;;5.97;95.01
60920;BME280;59039;52.108;19.942;2023-12-20T10:27:33;99594.27;;;5.95;94.98
60920;BME280;59039;52.108;19.942;2023-12-20T10:29:58;99596.16;;;5.94;94.88
60920;BME280;59039;52.108;19.942;2023-12-20T10:32:24;99597.05;;;5.94;94.96
60920;BME280;59039;52.108;19.942;2023-12-20T10:34:51;99590.95;;;5.94;95.10
60920;BME280;59039;52.108;19.942;2023-12-20T10:37:16;99592.52;;;5.95;94.97
60920;BME280;59039;52.108;19.942;2023-12-20T10:39:42;99587.17;;;5.96;95.06
60920;BME280;59039;52.108;19.942;2023-12-20T10:42:10;99583.23;;;5.98;95.10
60920;BME280;59039;52.108;19.942;2023-12-20T10:44:36;99583.45;;;5.99;95.13
60920;BME280;59039;52.108;19.942;2023-12-20T10:47:02;99587.79;;;6.01;95.03
60920;BME280;59039;52.108;19.942;2023-12-20T10:49:30;99584.52;;;6.01;94.82
60920;BME280;59039;52.108;19.942;2023-12-20T10:51:56;99585.46;;;6.01;94.66
60920;BME280;59039;52.108;19.942;2023-12-20T10:54:22;99578.48;;;5.99;94.57
60920;BME280;59039;52.108;19.942;2023-12-20T10:56:49;99578.52;;;5.97;94.62
60920;BME280;59039;52.108;19.942;2023-12-20T10:59:19;99577.89;;;5.96;94.78
60920;BME280;59039;52.108;19.942;2023-12-20T11:01:46;99573.85;;;5.95;94.53
60920;BME280;59039;52.108;19.942;2023-12-20T11:04:15;99572.83;;;5.94;94.54
60920;BME280;59039;52.108;19.942;2023-12-20T11:06:50;99571.20;;;5.94;94.35
60920;BME280;59039;52.108;19.942;2023-12-20T11:09:19;99572.34;;;5.91;94.24
60920;BME280;59039;52.108;19.942;2023-12-20T11:14:46;99572.06;;;5.89;94.17
60920;BME280;59039;52.108;19.942;2023-12-20T11:17:12;99566.48;;;5.88;94.18
60920;BME280;59039;52.108;19.942;2023-12-20T11:22:27;99564.94;;;5.88;94.06
60920;BME280;59039;52.108;19.942;2023-12-20T11:24:53;99560.98;;;5.88;94.02
60920;BME280;59039;52.108;19.942;2023-12-20T11:27:19;99558.21;;;5.89;94.02
60920;BME280;59039;52.108;19.942;2023-12-20T11:29:52;99557.59;;;5.90;93.88
60920;BME280;59039;52.108;19.942;2023-12-20T11:34:53;99553.29;;;5.91;93.75
60920;BME280;59039;52.108;19.942;2023-12-20T11:37:19;99553.59;;;5.92;93.52
60920;BME280;59039;52.108;19.942;2023-12-20T11:39:45;99549.88;;;5.91;93.46
60920;BME280;59039;52.108;19.942;2023-12-20T11:42:10;99552.47;;;5.92;93.64
60920;BME280;59039;52.108;19.942;2023-12-20T11:44:36;99555.52;;;5.92;93.59
60920;BME280;59039;52.108;19.942;2023-12-20T11:47:02;99559.59;;;5.93;93.60
60920;BME280;59039;52.108;19.942;2023-12-20T11:49:27;99562.48;;;5.95;93.62
60920;BME280;59039;52.108;19.942;2023-12-20T11:51:52;99559.01;;;5.98;93.63
60920;BME280;59039;52.108;19.942;2023-12-20T11:54:18;99552.52;;;6.00;93.52
60920;BME280;59039;52.108;19.942;2023-12-20T11:56:43;99546.68;;;6.00;93.40
60920;BME280;59039;52.108;19.942;2023-12-20T11:59:08;99537.62;;;6.01;93.38
60920;BME280;59039;52.108;19.942;2023-12-20T12:01:34;99538.95;;;6.02;93.13
60920;BME280;59039;52.108;19.942;2023-12-20T12:04:03;99534.48;;;6.04;93.21
60920;BME280;59039;52.108;19.942;2023-12-20T12:06:29;99531.08;;;6.05;93.05
60920;BME280;59039;52.108;19.942;2023-12-20T12:08:54;99524.41;;;6.08;93.01
60920;BME280;59039;52.108;19.942;2023-12-20T12:11:19;99525.11;;;6.10;92.94
60920;BME280;59039;52.108;19.942;2023-12-20T12:13:45;99525.63;;;6.12;92.70
60920;BME280;59039;52.108;19.942;2023-12-20T12:16:10;99525.51;;;6.13;92.72
60920;BME280;59039;52.108;19.942;2023-12-20T12:18:35;99521.88;;;6.13;92.45
60920;BME280;59039;52.108;19.942;2023-12-20T12:21:01;99520.36;;;6.12;92.23
60920;BME280;59039;52.108;19.942;2023-12-20T12:23:26;99521.31;;;6.10;92.17
60920;BME280;59039;52.108;19.942;2023-12-20T12:25:51;99524.13;;;6.09;92.18
60920;BME280;59039;52.108;19.942;2023-12-20T12:28:16;99520.83;;;6.09;92.30
60920;BME280;59039;52.108;19.942;2023-12-20T12:30:42;99523.24;;;6.09;91.99
60920;BME280;59039;52.108;19.942;2023-12-20T12:33:07;99519.09;;;6.07;92.02
60920;BME280;59039;52.108;19.942;2023-12-20T12:35:32;99516.33;;;6.05;91.88
60920;BME280;59039;52.108;19.942;2023-12-20T12:37:58;99509.64;;;6.04;91.97
60920;BME280;59039;52.108;19.942;2023-12-20T12:40:24;99504.80;;;6.04;91.96
60920;BME280;59039;52.108;19.942;2023-12-20T12:42:49;99508.73;;;6.04;91.78
60920;BME280;59039;52.108;19.942;2023-12-20T12:45:14;99510.64;;;6.05;91.58
60920;BME280;59039;52.108;19.942;2023-12-20T12:47:40;99502.95;;;6.04;91.60
60920;BME280;59039;52.108;19.942;2023-12-20T12:50:05;99500.38;;;6.05;91.48
60920;BME280;59039;52.108;19.942;2023-12-20T12:52:30;99498.45;;;6.04;91.14
60920;BME280;59039;52.108;19.942;2023-12-20T12:54:56;99499.20;;;6.04;90.85
60920;BME280;59039;52.108;19.942;2023-12-20T12:57:21;99498.94;;;6.03;90.75
60920;BME280;59039;52.108;19.942;2023-12-20T12:59:46;99498.98;;;6.01;90.24